Terminal Aerodrome Forecast
Issued by NWS

Home | Current Version | Previous Version | Text Only | Print | Product List | Glossary On
Versions: 1 2 3 4 5 6 7 8 9 10 11 12
476
FTPA31 PHFO 132333
TAFHJH
TAF
PHJH 132333Z 1400/1424 07014G20KT P6SM FEW035 SCT050
     FM140600 08010KT P6SM FEW050
     FM142000 07012G20KT P6SM FEW035 SCT050=

USA.gov is the U.S. government's official web portal to all federal, state and local government web resources and services.